Snav Lazio — IBUH — position and weather

sailwx.info

Track history (hours):
 
Tides and Currents Weather Stations Pressure Air Temp Water Temp Dewpoint Dewpoint Depression Visibility Wind Speed Wind Dir Waves Ship Positions

Snav Lazio

Last reported at 2014-Nov-23 17:19 UTC. Time now 2014-Nov-23 21:10 UTC.
Position N 40°50' E 014°15'.

Length 162 m; draft 6 m.

Type: Passenger vessel. MMSI: 247163100.

Date/timePositionNaut miles runAvg speedWind from/ knotsBaromVisibWave heightAir tempDewpointWater temp
2014-Nov-23 17:19N 40°50' E 014°15'0 0.0
2014-Nov-23 13:28N 40°50' E 014°15'7 0.8
2014-Nov-23 04:33N 40°44' E 014°13'1817.6
2014-Nov-23 03:34N 40°27' E 014°05'5617.7
2014-Nov-23 00:23N 39°32' E 013°51'1517.7
2014-Nov-22 23:32N 39°18' E 013°44'1717.7
2014-Nov-22 22:33N 39°01' E 013°39'3617.8
2014-Nov-22 20:33N 38°26' E 013°30'1817.6
2014-Nov-22 19:33N 38°09' E 013°26'3 3.2
2014-Nov-22 18:32N 38°08' E 013°22'0 0.0
2014-Nov-22 17:29N 38°08' E 013°22'0 0.0
2014-Nov-22 16:32N 38°08' E 013°22'0 0.0
2014-Nov-22 15:32N 38°08' E 013°22'0 0.0
2014-Nov-22 14:32N 38°08' E 013°22'0 0.0
2014-Nov-22 13:32N 38°08' E 013°22'0 0.0
2014-Nov-22 12:32N 38°08' E 013°22'0 0.0
2014-Nov-22 11:32N 38°08' E 013°22'0 0.0
2014-Nov-22 10:32N 38°08' E 013°22'0 0.0
2014-Nov-22 09:32N 38°08' E 013°22'0 0.0
2014-Nov-22 08:32N 38°08' E 013°22'0 0.0
2014-Nov-22 07:32N 38°08' E 013°22'0 0.0
2014-Nov-22 06:32N 38°08' E 013°22'0 0.0
2014-Nov-22 05:32N 38°08' E 013°22'6 5.8
2014-Nov-22 04:33N 38°13' E 013°26'1818.3
2014-Nov-22 03:33N 38°31' E 013°31'1918.6
2014-Nov-22 02:33N 38°49' E 013°36'1717.4
2014-Nov-22 01:33N 39°06' E 013°41'1717.1
2014-Nov-22 00:32N 39°23' E 013°45'5517.2
2014-Nov-21 21:20N 40°16' E 014°03'1317.5
2014-Nov-21 20:34N 40°30' E 014°07'1817.8
2014-Nov-21 19:33N 40°46' E 014°15'2 0.1
2014-Nov-21 04:33N 40°44' E 014°14'1817.9
2014-Nov-21 03:33N 40°28' E 014°05'12217.5
2014-Nov-20 20:33N 38°28' E 013°31'1817.9
2014-Nov-20 19:34N 38°11' E 013°26'4 4.3
2014-Nov-20 18:32N 38°08' E 013°22'0 0.0
2014-Nov-20 17:32N 38°08' E 013°22'0 0.0
2014-Nov-20 16:32N 38°08' E 013°22'0 0.0
2014-Nov-20 15:32N 38°08' E 013°22'0 0.0
2014-Nov-20 14:32N 38°08' E 013°22'0 0.0
2014-Nov-20 13:32N 38°08' E 013°22'0 0.0
2014-Nov-20 12:32N 38°08' E 013°22'0 0.0
2014-Nov-20 11:32N 38°08' E 013°22'0 0.0
2014-Nov-20 10:32N 38°08' E 013°22'0 0.0
2014-Nov-20 09:29N 38°08' E 013°22'0 0.0
2014-Nov-20 08:32N 38°08' E 013°22'13312.1
2014-Nov-19 21:32N 40°17' E 014°03'1717.3
2014-Nov-19 20:33N 40°33' E 014°08'1717.3
2014-Nov-19 19:33N 40°49' E 014°17'8 0.5
2014-Nov-19 04:33N 40°42' E 014°12'1818.2
2014-Nov-19 03:33N 40°25' E 014°04'11217.2
2014-Nov-18 21:04N 38°36' E 013°33'917.2
2014-Nov-18 20:33N 38°27' E 013°30'1717.2
2014-Nov-18 19:33N 38°11' E 013°26'4 4.0
2014-Nov-18 18:31N 38°08' E 013°22'0 0.0
2014-Nov-18 17:31N 38°08' E 013°22'0 0.0
2014-Nov-18 16:31N 38°08' E 013°22'0 0.0
2014-Nov-18 15:31N 38°08' E 013°22'0 0.0
2014-Nov-18 14:31N 38°08' E 013°22'0 0.0
2014-Nov-18 13:31N 38°08' E 013°22'0 0.0
2014-Nov-18 12:28N 38°08' E 013°22'0 0.0
2014-Nov-18 11:31N 38°08' E 013°22'0 0.0
2014-Nov-18 10:31N 38°08' E 013°22'0 0.0
2014-Nov-18 09:31N 38°08' E 013°22'0 0.0
2014-Nov-18 08:31N 38°08' E 013°22'0 0.0
2014-Nov-18 07:31N 38°08' E 013°22'0 0.0
2014-Nov-18 06:31N 38°08' E 013°22'1 1.3
2014-Nov-18 05:33N 38°07' E 013°23'1716.9
2014-Nov-18 04:34N 38°23' E 013°30'1818.1
2014-Nov-18 03:34N 38°41' E 013°36'12417.1
2014-Nov-17 20:20N 40°41' E 014°11'10 0.2
2014-Nov-16 05:04N 40°50' E 014°16'815.8
2014-Nov-16 04:34N 40°42' E 014°13'1818.2
2014-Nov-16 03:34N 40°25' E 014°05'11417.5
2014-Nov-15 21:05N 38°35' E 013°33'917.5
2014-Nov-15 20:33N 38°25' E 013°30'1717.4
2014-Nov-15 19:33N 38°09' E 013°25'3 2.6
2014-Nov-15 18:31N 38°08' E 013°22'0 0.0
2014-Nov-15 17:31N 38°08' E 013°22'0 0.0
2014-Nov-15 16:31N 38°08' E 013°22'0 0.0
2014-Nov-15 15:31N 38°08' E 013°22'0 0.0
2014-Nov-15 14:31N 38°08' E 013°22'0 0.0
2014-Nov-15 13:31N 38°08' E 013°22'0 0.0
2014-Nov-15 12:31N 38°08' E 013°22'0 0.0
2014-Nov-15 11:31N 38°08' E 013°22'0 0.0
2014-Nov-15 10:31N 38°08' E 013°22'0 0.0
2014-Nov-15 09:28N 38°08' E 013°22'0 0.0
2014-Nov-15 08:28N 38°08' E 013°22'0 0.0
2014-Nov-15 07:31N 38°08' E 013°22'0 0.0
2014-Nov-15 06:31N 38°08' E 013°22'0 0.0
2014-Nov-15 05:31N 38°08' E 013°22'5 5.4
2014-Nov-15 04:34N 38°12' E 013°26'1817.6
2014-Nov-15 03:34N 38°29' E 013°31'1818.1
2014-Nov-15 02:34N 38°47' E 013°37'9117.9
2014-Nov-14 21:28N 40°15' E 014°04'1617.3
2014-Nov-14 20:33N 40°31' E 014°07'1717.4
2014-Nov-14 19:33N 40°47' E 014°16'3 0.2
2014-Nov-14 05:04N 40°50' E 014°16'815.2
2014-Nov-14 04:34N 40°43' E 014°13'1918.5
2014-Nov-14 03:33N 40°26' E 014°04'  
Track history (hours):
 
Tides and Currents Weather Stations Pressure Air Temp Water Temp Dewpoint Dewpoint Depression Visibility Wind Speed Wind Dir Waves Ship Positions

Snav Lazio

Last reported at 2014-Nov-23 17:19 UTC. Time now 2014-Nov-23 21:10 UTC.
Position N 40°50' E 014°15'.

Length 162 m; draft 6 m.

Type: Passenger vessel. MMSI: 247163100.

Date/timePositionNaut miles runAvg speedWind from/ knotsBaromVisibWave heightAir tempDewpointWater temp
2014-Nov-23 17:19N 40°50' E 014°15'0 0.0
2014-Nov-23 13:28N 40°50' E 014°15'7 0.8
2014-Nov-23 04:33N 40°44' E 014°13'1817.6
2014-Nov-23 03:34N 40°27' E 014°05'5617.7
2014-Nov-23 00:23N 39°32' E 013°51'1517.7
2014-Nov-22 23:32N 39°18' E 013°44'1717.7
2014-Nov-22 22:33N 39°01' E 013°39'3617.8
2014-Nov-22 20:33N 38°26' E 013°30'1817.6
2014-Nov-22 19:33N 38°09' E 013°26'3 3.2
2014-Nov-22 18:32N 38°08' E 013°22'0 0.0
2014-Nov-22 17:29N 38°08' E 013°22'0 0.0
2014-Nov-22 16:32N 38°08' E 013°22'0 0.0
2014-Nov-22 15:32N 38°08' E 013°22'0 0.0
2014-Nov-22 14:32N 38°08' E 013°22'0 0.0
2014-Nov-22 13:32N 38°08' E 013°22'0 0.0
2014-Nov-22 12:32N 38°08' E 013°22'0 0.0
2014-Nov-22 11:32N 38°08' E 013°22'0 0.0
2014-Nov-22 10:32N 38°08' E 013°22'0 0.0
2014-Nov-22 09:32N 38°08' E 013°22'0 0.0
2014-Nov-22 08:32N 38°08' E 013°22'0 0.0
2014-Nov-22 07:32N 38°08' E 013°22'0 0.0
2014-Nov-22 06:32N 38°08' E 013°22'0 0.0
2014-Nov-22 05:32N 38°08' E 013°22'6 5.8
2014-Nov-22 04:33N 38°13' E 013°26'1818.3
2014-Nov-22 03:33N 38°31' E 013°31'1918.6
2014-Nov-22 02:33N 38°49' E 013°36'1717.4
2014-Nov-22 01:33N 39°06' E 013°41'1717.1
2014-Nov-22 00:32N 39°23' E 013°45'5517.2
2014-Nov-21 21:20N 40°16' E 014°03'1317.5
2014-Nov-21 20:34N 40°30' E 014°07'1817.8
2014-Nov-21 19:33N 40°46' E 014°15'2 0.1
2014-Nov-21 04:33N 40°44' E 014°14'1817.9
2014-Nov-21 03:33N 40°28' E 014°05'12217.5
2014-Nov-20 20:33N 38°28' E 013°31'1817.9
2014-Nov-20 19:34N 38°11' E 013°26'4 4.3
2014-Nov-20 18:32N 38°08' E 013°22'0 0.0
2014-Nov-20 17:32N 38°08' E 013°22'0 0.0
2014-Nov-20 16:32N 38°08' E 013°22'0 0.0
2014-Nov-20 15:32N 38°08' E 013°22'0 0.0
2014-Nov-20 14:32N 38°08' E 013°22'0 0.0
2014-Nov-20 13:32N 38°08' E 013°22'0 0.0
2014-Nov-20 12:32N 38°08' E 013°22'0 0.0
2014-Nov-20 11:32N 38°08' E 013°22'0 0.0
2014-Nov-20 10:32N 38°08' E 013°22'0 0.0
2014-Nov-20 09:29N 38°08' E 013°22'0 0.0
2014-Nov-20 08:32N 38°08' E 013°22'13312.1
2014-Nov-19 21:32N 40°17' E 014°03'1717.3
2014-Nov-19 20:33N 40°33' E 014°08'1717.3
2014-Nov-19 19:33N 40°49' E 014°17'8 0.5
2014-Nov-19 04:33N 40°42' E 014°12'1818.2
2014-Nov-19 03:33N 40°25' E 014°04'11217.2
2014-Nov-18 21:04N 38°36' E 013°33'917.2
2014-Nov-18 20:33N 38°27' E 013°30'1717.2
2014-Nov-18 19:33N 38°11' E 013°26'4 4.0
2014-Nov-18 18:31N 38°08' E 013°22'0 0.0
2014-Nov-18 17:31N 38°08' E 013°22'0 0.0
2014-Nov-18 16:31N 38°08' E 013°22'0 0.0
2014-Nov-18 15:31N 38°08' E 013°22'0 0.0
2014-Nov-18 14:31N 38°08' E 013°22'0 0.0
2014-Nov-18 13:31N 38°08' E 013°22'0 0.0
2014-Nov-18 12:28N 38°08' E 013°22'0 0.0
2014-Nov-18 11:31N 38°08' E 013°22'0 0.0
2014-Nov-18 10:31N 38°08' E 013°22'0 0.0
2014-Nov-18 09:31N 38°08' E 013°22'0 0.0
2014-Nov-18 08:31N 38°08' E 013°22'0 0.0
2014-Nov-18 07:31N 38°08' E 013°22'0 0.0
2014-Nov-18 06:31N 38°08' E 013°22'1 1.3
2014-Nov-18 05:33N 38°07' E 013°23'1716.9
2014-Nov-18 04:34N 38°23' E 013°30'1818.1
2014-Nov-18 03:34N 38°41' E 013°36'12417.1
2014-Nov-17 20:20N 40°41' E 014°11'10 0.2
2014-Nov-16 05:04N 40°50' E 014°16'815.8
2014-Nov-16 04:34N 40°42' E 014°13'1818.2
2014-Nov-16 03:34N 40°25' E 014°05'11417.5
2014-Nov-15 21:05N 38°35' E 013°33'917.5
2014-Nov-15 20:33N 38°25' E 013°30'1717.4
2014-Nov-15 19:33N 38°09' E 013°25'3 2.6
2014-Nov-15 18:31N 38°08' E 013°22'0 0.0
2014-Nov-15 17:31N 38°08' E 013°22'0 0.0
2014-Nov-15 16:31N 38°08' E 013°22'0 0.0
2014-Nov-15 15:31N 38°08' E 013°22'0 0.0
2014-Nov-15 14:31N 38°08' E 013°22'0 0.0
2014-Nov-15 13:31N 38°08' E 013°22'0 0.0
2014-Nov-15 12:31N 38°08' E 013°22'0 0.0
2014-Nov-15 11:31N 38°08' E 013°22'0 0.0
2014-Nov-15 10:31N 38°08' E 013°22'0 0.0
2014-Nov-15 09:28N 38°08' E 013°22'0 0.0
2014-Nov-15 08:28N 38°08' E 013°22'0 0.0
2014-Nov-15 07:31N 38°08' E 013°22'0 0.0
2014-Nov-15 06:31N 38°08' E 013°22'0 0.0
2014-Nov-15 05:31N 38°08' E 013°22'5 5.4
2014-Nov-15 04:34N 38°12' E 013°26'1817.6
2014-Nov-15 03:34N 38°29' E 013°31'1818.1
2014-Nov-15 02:34N 38°47' E 013°37'9117.9
2014-Nov-14 21:28N 40°15' E 014°04'1617.3
2014-Nov-14 20:33N 40°31' E 014°07'1717.4
2014-Nov-14 19:33N 40°47' E 014°16'3 0.2
2014-Nov-14 05:04N 40°50' E 014°16'815.2
2014-Nov-14 04:34N 40°43' E 014°13'1918.5
2014-Nov-14 03:33N 40°26' E 014°04'  

Dump ship's entire track history